Data for 03/10/2006

Time Sea-Level Adjusted Pressure Absolute Pressure Temperature Relative Humidity Dew Point   
(mb) (inHg) (mb) (inHg) (C) (F) (%) (C) (F)
00:05 999 29.5 828 24.45 -4.9 23.1 49 -14.2 6.4
00:10 999 29.5 828 24.45 -4.9 23.2 47 -14.7 5.6
00:15 999 29.5 828 24.45 -4.8 23.4 43 -15.5 4.2
00:20 999 29.5 828 24.45 -4.7 23.5 44 -15.2 4.7
00:25 999 29.5 828 24.45 -4.8 23.4 46 -14.7 5.5
00:30 999 29.5 828 24.45 -4.8 23.3 44 -15.4 4.3
00:35 999 29.5 828 24.45 -4.8 23.4 47 -14.4 6
00:40 999 29.5 828 24.45 -4.7 23.5 48 -14 6.7
00:45 999 29.5 828 24.45 -4.7 23.5 50 -13.7 7.4
00:50 999 29.5 828 24.45 -4.7 23.5 47 -14.3 6.2
00:55 999 29.5 828 24.45 -4.6 23.6 47 -14.4 6
01:00 999 29.5 828 24.45 -4.7 23.6 47 -14.2 6.4
01:05 999 29.5 828 24.45 -4.7 23.5 48 -14 6.7
01:10 999 29.5 828 24.45 -4.7 23.5 50 -13.7 7.4
01:15 999 29.5 828 24.45 -4.7 23.6 49 -13.9 7
01:20 999 29.5 828 24.45 -4.7 23.5 49 -13.8 7.1
01:25 999 29.5 828 24.45 -4.7 23.5 50 -13.6 7.6
01:30 999 29.5 828 24.45 -4.9 23.2 52 -13.4 8
01:35 999 29.5 828 24.45 -4.9 23.1 52 -13.4 7.9
01:40 999 29.5 828 24.45 -4.9 23.1 53 -13.2 8.3
01:45 999 29.5 829 24.48 -5 23 54 -13 8.6
01:50 999 29.5 829 24.48 -5.1 22.8 55 -12.9 8.8
01:55 999 29.5 829 24.48 -5.2 22.6 57 -12.5 9.5
02:00 999 29.5 829 24.48 -5.6 21.9 59 -12.4 9.6
02:05 999 29.5 829 24.48 -5.9 21.4 59 -12.6 9.4
02:10 999 29.5 829 24.48 -6 21.1 61 -12.5 9.6
02:15 999 29.5 829 24.48 -6.1 21 62 -12.4 9.8
02:20 999 29.5 829 24.48 -6.1 21.1 62 -12.3 9.9
02:25 999 29.5 829 24.48 -6.2 20.9 63 -12.2 10
02:30 999 29.5 829 24.48 -6.3 20.7 62 -12.3 9.8
02:35 999 29.5 829 24.48 -6.2 20.9 62 -12.3 9.8
02:40 999 29.5 829 24.48 -6.3 20.7 63 -12.1 10.1
02:45 999 29.5 829 24.48 -6.3 20.8 63 -12.1 10.2
02:50 999 29.5 829 24.48 -6.2 20.9 63 -12.2 10.1
02:55 999 29.5 829 24.48 -6.2 20.9 63 -12.2 10.1
03:00 999 29.5 829 24.48 -6.2 20.8 63 -12.2 10.1
03:05 999 29.5 829 24.48 -6.2 20.9 63 -12.1 10.2
03:10 999 29.5 829 24.48 -6.3 20.7 64 -12.1 10.2
03:15 999 29.5 829 24.48 -6.5 20.3 64 -12.1 10.1
03:20 999 29.5 828 24.45 -6.4 20.5 64 -12.2 10
03:25 999 29.5 828 24.45 -6.4 20.5 64 -12.1 10.2
03:30 999 29.5 828 24.45 -6.5 20.3 64 -12.2 10
03:35 999 29.5 828 24.45 -6.4 20.4 63 -12.3 9.8
03:40 999 29.5 828 24.45 -6.5 20.3 64 -12.3 9.8
03:45 999 29.5 828 24.45 -6.6 20.1 64 -12.2 10
03:50 999 29.5 828 24.45 -6.7 19.9 64 -12.3 9.8
03:55 999 29.5 828 24.45 -6.7 19.9 65 -12.4 9.7
04:00 999 29.5 828 24.45 -6.7 19.9 65 -12.3 9.8
04:05 999 29.5 828 24.45 -6.9 19.6 65 -12.4 9.6
04:10 999 29.5 828 24.45 -6.9 19.6 65 -12.5 9.6
04:15 999 29.5 828 24.45 -6.9 19.7 64 -12.6 9.4
04:20 999 29.5 828 24.45 -6.8 19.8 63 -12.6 9.3
04:25 999 29.5 828 24.45 -6.6 20.1 63 -12.5 9.4
04:30 999 29.5 829 24.48 -6.5 20.2 62 -12.7 9.2
04:35 999 29.5 829 24.48 -6.4 20.5 62 -12.6 9.4
04:40 999 29.5 829 24.48 -6.4 20.5 62 -12.5 9.5
04:45 999 29.5 829 24.48 -6.5 20.3 62 -12.7 9.2
04:50 999 29.5 829 24.48 -6.7 20 64 -12.4 9.7
04:55 1000 29.53 829 24.48 -7.2 19 67 -12.3 9.8
05:00 1000 29.53 829 24.48 -7.4 18.7 67 -12.5 9.4
05:05 1000 29.53 829 24.48 -7.4 18.7 67 -12.5 9.5
05:10 1000 29.53 829 24.48 -7.6 18.3 67 -12.7 9.2
05:15 1000 29.53 829 24.48 -7.7 18.1 66 -13 8.5
05:20 1000 29.53 829 24.48 -7.4 18.6 65 -13 8.7
05:25 1000 29.53 829 24.48 -7.6 18.4 65 -13 8.6
05:30 1000 29.53 829 24.48 -7.7 18.1 67 -12.8 8.9
05:35 1000 29.53 829 24.48 -8.2 17.3 68 -13 8.5
05:40 1000 29.53 829 24.48 -8.7 16.4 71 -13.1 8.4
05:45 1000 29.53 829 24.48 -8.8 16.2 70 -13.3 8.1
05:50 1000 29.53 829 24.48 -8.8 16.2 69 -13.5 7.7
05:55 1000 29.53 829 24.48 -8.7 16.4 67 -13.7 7.4
06:00 1000 29.53 829 24.48 -8.5 16.8 65 -13.9 7
06:05 1000 29.53 829 24.48 -8.5 16.8 64 -14.1 6.5
06:10 1000 29.53 829 24.48 -8.6 16.5 64 -14.3 6.3
06:15 1000 29.53 829 24.48 -8.7 16.4 63 -14.4 6
06:20 1000 29.53 829 24.48 -8.7 16.3 62 -14.7 5.5
06:25 1000 29.53 829 24.48 -8.7 16.4 63 -14.5 5.9
06:30 1000 29.53 829 24.48 -9 15.8 63 -14.9 5.2
06:35 1000 29.53 829 24.48 -9 15.8 65 -14.3 6.2
06:40 1000 29.53 829 24.48 -9.8 14.3 69 -14.4 6
06:45 1000 29.53 829 24.48 -10.1 13.8 69 -14.8 5.4
06:50 1000 29.53 829 24.48 -10.1 13.8 65 -15.5 4.1
06:55 1000 29.53 829 24.48 -9.8 14.4 62 -15.7 3.8
07:00 1000 29.53 829 24.48 -9.5 15 61 -15.6 3.9
07:05 1000 29.53 829 24.48 -9.4 15.2 61 -15.5 4
07:10 1000 29.53 829 24.48 -9.3 15.3 63 -15 4.9
07:15 1000 29.53 829 24.48 -9.1 15.5 62 -15.1 4.8
07:20 1000 29.53 829 24.48 -9.2 15.4 64 -14.9 5.2
07:25 1000 29.53 829 24.48 -9 15.9 63 -14.8 5.4
07:30 1000 29.53 830 24.51 -8.2 17.3 60 -14.6 5.7
07:35 1000 29.53 830 24.51 -7.8 18 60 -14.4 6.1
07:40 1000 29.53 830 24.51 -7.6 18.3 60 -14.1 6.6
07:45 1000 29.53 830 24.51 -7.2 19.1 56 -14.4 6
07:50 1001 29.56 830 24.51 -7 19.5 57 -14.2 6.5
07:55 1001 29.56 830 24.51 -6.9 19.6 58 -13.8 7.2
08:00 1001 29.56 830 24.51 -7.3 18.8 57 -14.4 6.1
08:05 1001 29.56 830 24.51 -7.5 18.5 57 -14.5 5.9
08:10 1001 29.56 830 24.51 -6.9 19.5 57 -14 6.8
08:15 1001 29.56 830 24.51 -6.8 19.7 57 -14.1 6.7
08:20 1001 29.56 830 24.51 -7.2 19.1 56 -14.6 5.8
08:25 1001 29.56 830 24.51 -7.1 19.1 54 -15.1 4.9
08:30 1001 29.56 830 24.51 -7 19.5 52 -15.3 4.4
08:35 1001 29.56 830 24.51 -6.3 20.6 48 -15.7 3.7
08:40 1001 29.56 830 24.51 -6.2 20.9 50 -15 5
08:45 1001 29.56 830 24.51 -5.5 22 47 -15.1 4.9
08:50 1001 29.56 830 24.51 -5.1 22.8 46 -15.1 4.8
08:55 1001 29.56 830 24.51 -4.9 23.3 46 -14.8 5.4
09:00 1001 29.56 830 24.51 -4.4 24.1 47 -14.2 6.5
09:05 1001 29.56 830 24.51 -3.7 25.3 43 -14.6 5.8
09:10 1001 29.56 830 24.51 -2.9 26.8 40 -14.9 5.3
09:15 1001 29.56 830 24.51 -2.9 26.8 38 -15.3 4.5
09:20 1001 29.56 830 24.51 -3.1 26.5 40 -14.9 5.1
09:25 1001 29.56 830 24.51 -3.8 25.2 42 -14.8 5.3
09:30 1001 29.56 830 24.51 -4 24.9 42 -15.1 4.7
09:35 1001 29.56 831 24.54 -3.3 26 39 -15.4 4.2
09:40 1001 29.56 831 24.54 -2.8 26.9 37 -15.6 3.9
09:45 1001 29.56 831 24.54 -2.4 27.7 35 -16 3.2
09:50 1001 29.56 831 24.54 -2.9 26.8 36 -16 3.2
09:55 1001 29.56 831 24.54 -3.1 26.5 36 -16.2 2.8
10:00 1001 29.56 831 24.54 -2.9 26.8 35 -16.2 2.8
10:05 1001 29.56 831 24.54 -1.5 29.3 32 -16.1 3
10:10 1001 29.56 831 24.54 -1 30.3 31 -16.2 2.9
10:15 1001 29.56 831 24.54 -1 30.2 31 -15.9 3.3
10:20 1001 29.56 831 24.54 -1 30.3 31 -16.1 2.9
10:25 1001 29.56 831 24.54 -1.4 29.5 33 -15.8 3.5
10:30 1001 29.56 831 24.54 -0.9 30.4 32 -15.5 4.1
10:35 1001 29.56 831 24.54 -0.5 31.1 31 -15.6 3.8
10:40 1001 29.56 831 24.54 -1.6 29.1 37 -14.6 5.7
10:45 1001 29.56 831 24.54 -1.4 29.6 34 -15.5 4.2
10:50 1001 29.56 830 24.51 -1 30.2 36 -14.3 6.2
10:55 1001 29.56 830 24.51 -1.9 28.6 37 -14.7 5.5
11:00 1001 29.56 830 24.51 -0.9 30.4 34 -15 5
11:05 1001 29.56 830 24.51 -0.3 31.5 33 -14.9 5.2
11:10 1001 29.56 830 24.51 -0.5 31.1 33 -14.9 5.1
11:15 1001 29.56 830 24.51 -1.1 30 33 -15.4 4.3
11:20 1001 29.56 830 24.51 -0.3 31.5 33 -14.6 5.7
11:25 1001 29.56 830 24.51 -0 32 33 -14.6 5.8
11:30 1001 29.56 830 24.51 -0.7 30.7 32 -15.6 3.8
11:35 1001 29.56 830 24.51 -1.5 29.3 34 -15.6 4
11:40 1001 29.56 830 24.51 -2 28.5 36 -15.2 4.6
11:45 1001 29.56 830 24.51 -0.9 30.3 32 -15.7 3.8
11:50 1001 29.56 830 24.51 -1.3 29.6 34 -15.2 4.7
11:55 1001 29.56 830 24.51 -1.1 30 33 -15.6 3.9
12:00 1001 29.56 830 24.51 0.1 32.2 30 -15.7 3.7
12:05 1001 29.56 830 24.51 -1.6 29.2 34 -15.4 4.3
12:10 1001 29.56 830 24.51 -2.1 28.2 34 -16 3.1
12:15 1001 29.56 830 24.51 -2.6 27.3 34 -16.4 2.4
12:20 1001 29.56 830 24.51 -2 28.4 33 -16.3 2.7
12:25 1001 29.56 830 24.51 -2 28.4 32 -16.6 2.1
12:30 1001 29.56 830 24.51 -1.3 29.7 31 -16.5 2.4
12:35 1001 29.56 830 24.51 -1 30.3 32 -15.5 4
12:40 1001 29.56 830 24.51 -1 30.3 32 -15.6 3.9
12:45 1001 29.56 830 24.51 -1.9 28.6 34 -15.7 3.8
12:50 1001 29.56 830 24.51 -1.7 29 32 -16.3 2.7
12:55 1001 29.56 830 24.51 -0.4 31.2 29 -16.6 2.1
13:00 1001 29.56 830 24.51 0.5 33 28 -16 3.2
13:05 1001 29.56 830 24.51 0.5 32.8 28 -16.2 2.8
13:10 1001 29.56 830 24.51 -0.3 31.5 29 -16.3 2.6
13:15 1001 29.56 830 24.51 -0.7 30.7 30 -16.2 2.9
13:20 1001 29.56 830 24.51 -1.4 29.6 31 -16.5 2.4
13:25 1001 29.56 830 24.51 -0.7 30.8 31 -15.9 3.3
13:30 1001 29.56 830 24.51 -0.2 31.7 29 -16 3.2
13:35 1001 29.56 830 24.51 -0.9 30.5 30 -16.3 2.6
13:40 1001 29.56 830 24.51 -0.9 30.4 30 -16.5 2.4
13:45 1001 29.56 830 24.51 -0.1 31.8 28 -16.4 2.6
13:50 1001 29.56 830 24.51 0.7 33.2 28 -15.9 3.3
13:55 1001 29.56 830 24.51 1.6 34.8 26 -16.1 3
14:00 1001 29.56 830 24.51 1.8 35.2 26 -16.1 3.1
14:05 1001 29.56 830 24.51 1.4 34.6 25 -16.4 2.4
14:10 1001 29.56 830 24.51 1 33.9 26 -16.5 2.3
14:15 1001 29.56 830 24.51 1.5 34.7 25 -16.5 2.4
14:20 1001 29.56 830 24.51 1.5 34.7 24 -17 1.4
14:25 1001 29.56 830 24.51 1 33.8 25 -17.1 1.2
14:30 1001 29.56 830 24.51 1.1 33.9 25 -17.2 1.1
14:35 1001 29.56 830 24.51 1.2 34.1 25 -16.9 1.5
14:40 1001 29.56 830 24.51 0.6 33.2 26 -16.8 1.8
14:45 1001 29.56 830 24.51 0.5 32.9 26 -17.1 1.3
14:50 1001 29.56 830 24.51 0.5 33 26 -17 1.4
14:55 1001 29.56 830 24.51 0.1 32.2 27 -16.9 1.5
15:00 1001 29.56 830 24.51 -0.1 31.8 27 -17.1 1.2
15:05 1001 29.56 830 24.51 -0.4 31.3 28 -16.9 1.6
15:10 1001 29.56 830 24.51 -0.8 30.5 28 -17.2 1
15:15 1001 29.56 830 24.51 -0.5 31.1 27 -17.2 1.1
15:20 1001 29.56 830 24.51 -0.5 31.1 30 -16 3.2
15:25 1001 29.56 830 24.51 -0.6 31 28 -17 1.4
15:30 1001 29.56 830 24.51 -0.4 31.4 28 -16.7 1.9
15:35 1001 29.56 830 24.51 -0.2 31.6 27 -17.3 0.8
15:40 1001 29.56 830 24.51 -0.2 31.6 26 -17.4 0.7
15:45 1001 29.56 831 24.54 -0.9 30.4 28 -17.2 1
15:50 1001 29.56 831 24.54 -0.7 30.7 27 -17.7 0.2
15:55 1001 29.56 831 24.54 -0.6 30.9 26 -17.7 0.1
16:00 1001 29.56 830 24.51 -0.7 30.8 27 -17.3 0.9
16:05 1001 29.56 831 24.54 -0.6 31 27 -17.5 0.5
16:10 1001 29.56 831 24.54 -0 32 26 -17.5 0.4
16:15 1001 29.56 831 24.54 0.1 32.2 25 -17.6 0.2
16:20 1001 29.56 831 24.54 0.3 32.6 25 -17.7 0.1
16:25 1001 29.56 831 24.54 0.5 32.9 24 -18.1 -0.6
16:30 1002 29.59 831 24.54 1 33.8 22 -18.6 -1.4
16:35 1002 29.59 831 24.54 0.9 33.7 22 -18.4 -1.1
16:40 1002 29.59 831 24.54 0.1 32.2 24 -18.1 -0.5
16:45 1002 29.59 831 24.54 -0.1 31.8 25 -17.9 -0.1
16:50 1002 29.59 831 24.54 -0.2 31.6 27 -17.1 1.1
16:55 1002 29.59 831 24.54 -0.4 31.3 28 -16.9 1.5
17:00 1002 29.59 831 24.54 -1 30.1 28 -17.4 0.7
17:05 1002 29.59 831 24.54 -1.3 29.6 29 -17 1.3
17:10 1002 29.59 831 24.54 -1.2 29.9 29 -17.1 1.3
17:15 1002 29.59 831 24.54 -1.2 29.8 29 -17 1.4
17:20 1002 29.59 831 24.54 -1.4 29.5 30 -16.8 1.8
17:25 1002 29.59 831 24.54 -1.5 29.3 30 -17.2 1.1
17:30 1002 29.59 831 24.54 -1.8 28.7 30 -17.3 0.8
17:35 1002 29.59 831 24.54 -1.9 28.6 30 -17.4 0.8
17:40 1002 29.59 831 24.54 -2 28.4 31 -17 1.5
17:45 1002 29.59 831 24.54 -2 28.5 31 -17.1 1.2
17:50 1002 29.59 831 24.54 -1.9 28.6 31 -16.9 1.6
17:55 1002 29.59 831 24.54 -1.7 28.9 30 -17.3 0.9
18:00 1002 29.59 831 24.54 -1.9 28.7 31 -16.9 1.5
18:05 1002 29.59 831 24.54 -2.1 28.2 31 -17 1.3
18:10 1002 29.59 831 24.54 -2.2 28 31 -17.1 1.2
18:15 1002 29.59 831 24.54 -2.3 27.9 34 -16.1 3.1
18:20 1002 29.59 831 24.54 -2.4 27.6 37 -15.2 4.6
18:25 1002 29.59 831 24.54 -2.4 27.6 37 -15.4 4.3
18:30 1002 29.59 831 24.54 -2.6 27.4 35 -15.9 3.4
18:35 1002 29.59 831 24.54 -2.6 27.2 37 -15.3 4.5
18:40 1002 29.59 831 24.54 -2.7 27.1 40 -14.6 5.8
18:45 1002 29.59 831 24.54 -2.9 26.9 43 -13.8 7.1
18:50 1002 29.59 831 24.54 -3 26.6 44 -13.5 7.6
18:55 1002 29.59 831 24.54 -3.1 26.4 46 -13.3 8.1
19:00 1002 29.59 832 24.57 -3.3 26 47 -13.1 8.4
19:05 1002 29.59 832 24.57 -3.5 25.7 45 -13.7 7.4
19:10 1002 29.59 832 24.57 -3.5 25.8 45 -13.6 7.5
19:15 1002 29.59 832 24.57 -3.5 25.8 45 -13.7 7.3
19:20 1003 29.62 832 24.57 -3.6 25.5 47 -13.3 8
19:25 1003 29.62 832 24.57 -3.8 25.1 49 -13.1 8.4
19:30 1003 29.62 832 24.57 -4 24.8 50 -13.1 8.5
19:35 1003 29.62 832 24.57 -4.2 24.4 51 -12.9 8.7
19:40 1003 29.62 832 24.57 -4.2 24.4 50 -13.1 8.4
19:45 1003 29.62 832 24.57 -4.4 24.2 50 -13.4 7.8
19:50 1003 29.62 832 24.57 -4.3 24.2 48 -13.8 7.2
19:55 1003 29.62 832 24.57 -4.3 24.2 49 -13.5 7.8
20:00 1003 29.62 832 24.57 -4.4 24.2 49 -13.6 7.6
20:05 1003 29.62 832 24.57 -4.4 24.1 50 -13.4 8
20:10 1003 29.62 832 24.57 -4.5 23.9 50 -13.5 7.7
20:15 1003 29.62 832 24.57 -4.5 23.9 49 -13.6 7.6
20:20 1003 29.62 832 24.57 -4.5 23.8 50 -13.4 7.9
20:25 1003 29.62 832 24.57 -4.6 23.6 51 -13.4 7.8
20:30 1003 29.62 832 24.57 -4.7 23.5 51 -13.4 8
20:35 1003 29.62 832 24.57 -4.7 23.6 50 -13.5 7.6
20:40 1003 29.62 833 24.6 -4.9 23.2 51 -13.4 7.8
20:45 1003 29.62 833 24.6 -5.2 22.7 52 -13.6 7.5
20:50 1003 29.62 833 24.6 -5 22.9 51 -13.7 7.4
20:55 1003 29.62 833 24.6 -5.1 22.9 53 -13.2 8.2
21:00 1003 29.62 833 24.6 -5.6 22 54 -13.6 7.6
21:05 1003 29.62 833 24.6 -5.6 21.9 52 -14 6.8
21:10 1004 29.65 833 24.6 -5.5 22.1 52 -13.9 7.1
21:15 1004 29.65 833 24.6 -5.7 21.8 51 -14.3 6.3
21:20 1004 29.65 833 24.6 -5.6 21.8 50 -14.4 6.1
21:25 1004 29.65 833 24.6 -5.6 21.9 49 -14.6 5.7
21:30 1004 29.65 833 24.6 -5.7 21.7 50 -14.6 5.6
21:35 1004 29.65 833 24.6 -5.8 21.5 50 -14.8 5.4
21:40 1004 29.65 833 24.6 -6.2 20.8 51 -14.7 5.5
21:45 1004 29.65 833 24.6 -6.4 20.5 51 -15 5
21:50 1004 29.65 833 24.6 -6.5 20.4 51 -15 4.9
21:55 1004 29.65 833 24.6 -6.5 20.3 52 -14.9 5.2
22:00 1004 29.65 833 24.6 -6.6 20.1 51 -15.2 4.7
22:05 1004 29.65 833 24.6 -6.7 20 52 -15.1 4.9
22:10 1004 29.65 833 24.6 -6.8 19.8 52 -15.2 4.7
22:15 1004 29.65 833 24.6 -7 19.4 52 -15.2 4.7
22:20 1004 29.65 833 24.6 -7 19.3 52 -15.3 4.4
22:25 1004 29.65 833 24.6 -7.2 19.1 52 -15.4 4.3
22:30 1004 29.65 833 24.6 -7.1 19.3 52 -15.2 4.6
22:35 1004 29.65 833 24.6 -7 19.5 53 -15 5
22:40 1004 29.65 833 24.6 -6.9 19.5 54 -14.9 5.3
22:45 1004 29.65 833 24.6 -7.1 19.1 55 -14.8 5.4
22:50 1004 29.65 833 24.6 -7.1 19.3 54 -14.9 5.2
22:55 1004 29.65 833 24.6 -7.2 19 54 -15 4.9
23:00 1004 29.65 833 24.6 -7.3 18.9 54 -15 5.1
23:05 1004 29.65 833 24.6 -7.2 19 55 -14.8 5.4
23:10 1004 29.65 833 24.6 -7.3 18.9 55 -14.9 5.1
23:15 1004 29.65 833 24.6 -7.5 18.6 55 -15 4.9
23:20 1004 29.65 833 24.6 -7.4 18.6 54 -15.1 4.7
23:25 1004 29.65 834 24.63 -7.6 18.4 53 -15.5 4
23:30 1004 29.65 834 24.63 -7.9 17.8 54 -15.7 3.7
23:35 1004 29.65 834 24.63 -8.1 17.5 53 -16 3.2
23:40 1004 29.65 834 24.63 -8.1 17.4 54 -15.9 3.3
23:45 1004 29.65 834 24.63 -8.1 17.4 54 -15.8 3.5
23:50 1004 29.65 834 24.63 -8.2 17.3 54 -16 3.3
23:55 1004 29.65 834 24.63 -8.1 17.4 53 -16 3.2
24:00 1004 29.65 834 24.63 -8.4 17 52 -16.5 2.3